Time;durP1;ratioP1;P1;durP2;ratioP2;P2;SDS_P1;SDS_P2;PMS_P1;PMS_P2;Temp;Humidity;BMP_temperature;BMP_pressure;BME280_temperature;BME280_humidity;BME280_pressure;Samples;Min_cycle;Max_cycle;Signal;HPM_P1;HPM_P2
2020/12/20 00:01:39;;;;;;;3.30;2.30;;;18.60;99.90;;;;;;5048969;28;20395;-83
2020/12/20 00:04:07;;;;;;;3.67;2.05;;;18.60;99.90;;;;;;5050499;28;20506;-85
2020/12/20 00:06:40;;;;;;;3.37;2.20;;;18.70;99.90;;;;;;5050562;28;20467;-85
2020/12/20 00:09:09;;;;;;;4.18;1.80;;;18.80;99.90;;;;;;5051172;28;20385;-84
2020/12/20 00:11:43;;;;;;;2.17;1.90;;;18.90;99.90;;;;;;5050949;28;20360;-84
2020/12/20 00:14:27;;;;;;;6.10;2.00;;;19.10;99.90;;;;;;5052707;28;20390;-85
2020/12/20 00:17:06;;;;;;;2.03;1.83;;;19.10;99.90;;;;;;5058043;28;20906;-85
2020/12/20 00:19:35;;;;;;;1.80;1.60;;;19.20;99.90;;;;;;5055079;28;20960;-84
2020/12/20 00:22:08;;;;;;;4.07;1.90;;;19.20;99.90;;;;;;5064759;28;21015;-87
2020/12/20 00:24:35;;;;;;;3.33;1.65;;;19.30;99.90;;;;;;5071198;28;20897;-89
2020/12/20 00:27:04;;;;;;;4.28;1.45;;;19.20;99.90;;;;;;5069004;28;20409;-88
2020/12/20 00:29:33;;;;;;;3.42;1.70;;;19.30;99.90;;;;;;5057909;28;20895;-87
2020/12/20 00:32:06;;;;;;;2.30;1.60;;;19.30;99.90;;;;;;5058327;28;20379;-87
2020/12/20 00:34:34;;;;;;;4.47;1.80;;;19.30;99.70;;;;;;5047684;28;20716;-87
2020/12/20 00:37:01;;;;;;;2.17;1.93;;;19.30;99.90;;;;;;5064753;28;20383;-88
2020/12/20 00:39:28;;;;;;;1.83;1.35;;;19.40;99.90;;;;;;5052745;28;20422;-87
2020/12/20 00:42:01;;;;;;;2.47;1.60;;;19.50;99.70;;;;;;5051088;28;20463;-89
2020/12/20 00:44:29;;;;;;;1.92;1.42;;;19.30;99.30;;;;;;5051520;28;20497;-91
2020/12/20 00:46:58;;;;;;;2.22;1.70;;;19.30;99.90;;;;;;5050213;28;20491;-91
2020/12/20 00:49:29;;;;;;;3.08;1.80;;;19.40;99.90;;;;;;5051700;28;20394;-90
2020/12/20 00:52:01;;;;;;;3.42;1.83;;;19.40;99.90;;;;;;5059164;28;20384;-87
2020/12/20 00:54:29;;;;;;;2.65;1.50;;;19.40;99.90;;;;;;5054487;28;20987;-89
2020/12/20 00:56:56;;;;;;;3.05;1.73;;;19.30;99.90;;;;;;5067567;28;20385;-90
2020/12/20 00:59:24;;;;;;;3.92;1.50;;;19.30;99.90;;;;;;5050602;28;20392;-88
2020/12/20 01:01:51;;;;;;;1.85;1.45;;;19.40;99.70;;;;;;5068497;28;20750;-88
2020/12/20 01:04:19;;;;;;;2.60;1.55;;;19.40;99.30;;;;;;5054578;28;20410;-87
2020/12/20 01:06:46;;;;;;;2.28;1.30;;;19.40;99.80;;;;;;5051882;28;20824;-87
2020/12/20 01:09:16;;;;;;;3.90;1.67;;;19.40;99.40;;;;;;5058877;28;20792;-89
2020/12/20 01:11:43;;;;;;;3.63;1.60;;;19.40;99.50;;;;;;5068806;28;20386;-87
2020/12/20 01:14:11;;;;;;;3.17;1.55;;;19.40;99.90;;;;;;5070728;28;20374;-87
2020/12/20 01:16:38;;;;;;;3.53;1.93;;;19.50;99.90;;;;;;5070230;28;20374;-88
2020/12/20 01:19:05;;;;;;;2.65;1.70;;;19.60;99.30;;;;;;5070387;28;20385;-90
2020/12/20 01:21:34;;;;;;;3.20;2.05;;;19.60;99.70;;;;;;5052296;28;20771;-89
2020/12/20 01:24:02;;;;;;;3.42;1.88;;;19.60;99.70;;;;;;5069427;28;21157;-90
2020/12/20 01:26:30;;;;;;;3.88;1.83;;;19.70;99.30;;;;;;5070426;28;20375;-91
2020/12/20 01:28:58;;;;;;;3.55;1.80;;;19.80;99.10;;;;;;5070265;28;20408;-90
2020/12/20 01:31:25;;;;;;;2.75;1.77;;;19.90;98.90;;;;;;5072595;28;20453;-88
2020/12/20 01:33:53;;;;;;;4.40;1.83;;;20.10;99.20;;;;;;5064853;28;20392;-88
2020/12/20 01:36:20;;;;;;;3.90;2.17;;;20.40;98.90;;;;;;5040815;28;20397;-89
2020/12/20 01:38:47;;;;;;;2.72;1.50;;;21.00;98.90;;;;;;5052095;28;20392;-85
2020/12/20 01:41:15;;;;;;;3.92;1.60;;;21.20;96.70;;;;;;5050105;28;20753;-84
2020/12/20 01:43:52;;;;;;;3.53;1.40;;;21.30;96.20;;;;;;5049363;28;20417;-85
2020/12/20 01:46:21;;;;;;;3.65;1.52;;;21.20;96.30;;;;;;5012121;28;20409;-85
2020/12/20 01:48:51;;;;;;;3.25;1.65;;;20.90;96.30;;;;;;5034816;28;20413;-85
2020/12/20 01:51:19;;;;;;;3.60;1.65;;;20.80;96.60;;;;;;5052414;28;20465;-84
2020/12/20 01:53:47;;;;;;;6.35;1.88;;;20.50;96.40;;;;;;5057112;28;20393;-85
2020/12/20 01:56:15;;;;;;;4.00;2.10;;;20.40;96.70;;;;;;5043626;28;20400;-86
2020/12/20 01:58:45;;;;;;;3.88;1.95;;;20.30;97.30;;;;;;5048492;28;20828;-84
2020/12/20 02:01:12;;;;;;;5.82;2.08;;;20.20;97.30;;;;;;5038500;28;20731;-84
2020/12/20 02:03:40;;;;;;;5.75;2.80;;;20.10;97.60;;;;;;5044083;28;20413;-84
2020/12/20 02:06:12;;;;;;;6.50;2.40;;;19.90;98.10;;;;;;5048616;28;20383;-84
2020/12/20 02:08:39;;;;;;;5.00;2.60;;;19.90;98.50;;;;;;5047594;28;20412;-85
2020/12/20 02:11:16;;;;;;;3.05;1.90;;;19.80;98.10;;;;;;5047338;28;20420;-86
2020/12/20 02:13:53;;;;;;;4.10;1.75;;;19.90;97.90;;;;;;5057118;28;20479;-87
2020/12/20 02:16:22;;;;;;;8.13;2.00;;;19.90;97.70;;;;;;5055705;28;20378;-84
2020/12/20 02:18:51;;;;;;;4.07;1.58;;;20.00;98.00;;;;;;5052706;28;20387;-84
2020/12/20 02:21:19;;;;;;;5.37;1.93;;;19.90;97.00;;;;;;5049018;28;20854;-83
2020/12/20 02:23:48;;;;;;;5.10;2.38;;;20.00;97.00;;;;;;5048779;28;20494;-83
2020/12/20 02:26:17;;;;;;;4.40;2.33;;;20.30;97.40;;;;;;5048547;28;20393;-83
2020/12/20 02:28:48;;;;;;;6.45;2.08;;;20.60;97.50;;;;;;5041148;28;20738;-83
2020/12/20 02:31:16;;;;;;;4.43;2.00;;;20.80;97.60;;;;;;5019817;28;20478;-84
2020/12/20 02:33:44;;;;;;;3.78;2.08;;;20.90;96.80;;;;;;5049188;28;20481;-83
2020/12/20 02:36:12;;;;;;;6.07;2.17;;;20.90;96.10;;;;;;5041123;28;20476;-83
2020/12/20 02:38:39;;;;;;;5.13;1.80;;;20.80;96.40;;;;;;5029611;28;20397;-83
2020/12/20 02:41:07;;;;;;;4.35;2.22;;;20.80;96.10;;;;;;5035060;28;20884;-84
2020/12/20 02:43:35;;;;;;;5.40;2.10;;;20.80;96.40;;;;;;5069326;28;20884;-84
2020/12/20 02:46:02;;;;;;;3.90;2.08;;;20.80;96.40;;;;;;5070176;28;20389;-83
2020/12/20 02:48:29;;;;;;;5.18;1.80;;;20.70;96.20;;;;;;5058572;28;20761;-84
2020/12/20 02:50:57;;;;;;;4.13;2.20;;;20.80;96.10;;;;;;5049255;28;20387;-84
2020/12/20 02:53:24;;;;;;;4.68;2.40;;;20.80;96.60;;;;;;5029652;28;20496;-85
2020/12/20 02:55:52;;;;;;;5.20;2.13;;;20.80;96.10;;;;;;5029943;28;20428;-84
2020/12/20 02:58:20;;;;;;;4.43;2.00;;;20.90;96.50;;;;;;5042348;28;20553;-84
2020/12/20 03:00:47;;;;;;;3.67;1.73;;;21.00;95.90;;;;;;5050034;28;20396;-84
2020/12/20 03:03:14;;;;;;;5.72;1.92;;;21.10;95.10;;;;;;5033744;28;20421;-83
2020/12/20 03:05:42;;;;;;;3.25;1.63;;;21.10;94.30;;;;;;5053309;28;20913;-84
2020/12/20 03:08:11;;;;;;;4.90;1.70;;;21.10;94.50;;;;;;5057160;28;20876;-84
2020/12/20 03:10:39;;;;;;;4.03;1.80;;;21.20;93.70;;;;;;5052838;28;20395;-88
2020/12/20 03:13:06;;;;;;;3.17;1.52;;;21.20;94.20;;;;;;5052160;28;20460;-86
2020/12/20 03:15:34;;;;;;;4.40;1.60;;;21.20;94.20;;;;;;5055388;28;20415;-85
2020/12/20 03:18:01;;;;;;;3.50;1.60;;;21.30;93.30;;;;;;5044887;28;20408;-85
2020/12/20 03:20:29;;;;;;;4.82;1.77;;;21.40;93.70;;;;;;5054414;28;20770;-85
2020/12/20 03:22:58;;;;;;;3.13;1.55;;;21.60;94.10;;;;;;5045920;28;20422;-87
2020/12/20 03:25:26;;;;;;;6.43;1.83;;;21.70;94.70;;;;;;5067063;28;20398;-86
2020/12/20 03:27:54;;;;;;;2.45;1.60;;;21.50;93.40;;;;;;5032975;28;20424;-85
2020/12/20 03:30:21;;;;;;;3.92;1.35;;;21.60;94.00;;;;;;5071743;28;20396;-84
2020/12/20 03:32:48;;;;;;;3.55;1.30;;;21.70;92.90;;;;;;5059563;28;20394;-87
2020/12/20 03:35:16;;;;;;;3.80;1.70;;;21.80;92.60;;;;;;5053629;28;20761;-87
2020/12/20 03:37:54;;;;;;;4.85;1.67;;;21.90;92.40;;;;;;5058334;28;21468;-87
2020/12/20 03:40:23;;;;;;;3.97;1.33;;;21.90;93.50;;;;;;5047385;28;20428;-88
2020/12/20 03:42:51;;;;;;;4.03;1.58;;;21.80;92.20;;;;;;5044846;28;20392;-87
2020/12/20 03:45:19;;;;;;;4.10;1.45;;;21.70;92.30;;;;;;5053133;28;20410;-87
2020/12/20 03:47:48;;;;;;;2.33;1.38;;;21.70;93.30;;;;;;5055993;28;20398;-87
2020/12/20 03:50:16;;;;;;;2.65;1.35;;;21.80;92.70;;;;;;5051636;28;20396;-86
2020/12/20 03:52:43;;;;;;;2.17;1.10;;;21.80;91.80;;;;;;5051595;28;20360;-87
2020/12/20 03:55:10;;;;;;;3.17;1.20;;;22.10;92.30;;;;;;5033789;28;20839;-86
2020/12/20 03:57:38;;;;;;;1.77;1.20;;;22.20;92.00;;;;;;5051412;28;20375;-87
2020/12/20 04:00:06;;;;;;;2.58;1.25;;;22.10;91.80;;;;;;5051371;28;20384;-86
2020/12/20 04:02:33;;;;;;;3.90;1.63;;;21.90;92.10;;;;;;5051458;28;20376;-86
2020/12/20 04:05:01;;;;;;;2.75;1.42;;;21.90;92.80;;;;;;5051379;28;20897;-88
2020/12/20 04:07:28;;;;;;;4.53;1.60;;;21.70;92.30;;;;;;5051516;28;20386;-87
2020/12/20 04:09:56;;;;;;;2.07;1.53;;;21.70;94.00;;;;;;5051272;28;20438;-87
2020/12/20 04:12:23;;;;;;;3.05;1.95;;;21.70;94.20;;;;;;5051358;28;20396;-88
2020/12/20 04:14:50;;;;;;;5.87;2.70;;;21.60;94.10;;;;;;5051486;28;20395;-88
2020/12/20 04:17:18;;;;;;;7.43;2.50;;;21.50;94.30;;;;;;5051283;28;21021;-87
2020/12/20 04:19:45;;;;;;;6.00;2.50;;;21.40;95.00;;;;;;5051125;28;20462;-87
2020/12/20 04:22:12;;;;;;;6.93;2.58;;;21.20;94.60;;;;;;5051309;28;20364;-87
2020/12/20 04:24:39;;;;;;;4.65;2.10;;;21.20;94.70;;;;;;5051117;28;20905;-87
2020/12/20 04:27:06;;;;;;;6.65;2.55;;;21.10;94.80;;;;;;5050895;28;20435;-88
2020/12/20 04:29:34;;;;;;;4.88;2.28;;;21.10;94.90;;;;;;5033005;28;20400;-87
2020/12/20 04:32:03;;;;;;;4.85;2.20;;;21.20;95.20;;;;;;5051160;28;20488;-87
2020/12/20 04:34:30;;;;;;;6.90;2.38;;;21.30;95.10;;;;;;5050649;28;20934;-88
2020/12/20 04:36:57;;;;;;;9.40;2.60;;;21.30;95.00;;;;;;5050815;28;20466;-86
2020/12/20 04:39:25;;;;;;;8.10;2.28;;;21.40;95.40;;;;;;5050763;28;20422;-86
2020/12/20 04:41:52;;;;;;;5.32;2.35;;;21.40;95.30;;;;;;5050648;28;20368;-86
2020/12/20 04:44:19;;;;;;;4.33;2.07;;;21.40;94.30;;;;;;5050607;28;20450;-87
2020/12/20 04:46:47;;;;;;;6.97;2.28;;;21.40;94.50;;;;;;5050913;28;20453;-86
2020/12/20 04:49:15;;;;;;;5.32;2.00;;;21.50;94.90;;;;;;5050575;28;20453;-86
2020/12/20 04:51:43;;;;;;;5.43;2.00;;;21.50;94.40;;;;;;5050451;28;20368;-87
2020/12/20 04:54:12;;;;;;;5.32;1.98;;;21.50;94.00;;;;;;5050233;28;20932;-87
2020/12/20 04:56:39;;;;;;;6.07;2.00;;;21.50;94.20;;;;;;5050328;28;20422;-86
2020/12/20 04:59:06;;;;;;;4.70;1.90;;;21.50;94.40;;;;;;5049585;28;20414;-86
2020/12/20 05:01:34;;;;;;;7.50;2.13;;;21.50;93.30;;;;;;5050124;28;20454;-87
2020/12/20 05:04:02;;;;;;;3.97;1.98;;;21.60;93.80;;;;;;5050197;28;20454;-87
2020/12/20 05:06:30;;;;;;;6.10;2.08;;;21.60;93.90;;;;;;5050347;28;20448;-86
2020/12/20 05:09:04;;;;;;;4.65;1.75;;;21.60;93.70;;;;;;5049930;28;20364;-88
2020/12/20 05:11:37;;;;;;;4.75;1.83;;;21.60;93.40;;;;;;5049935;28;20384;-87
2020/12/20 05:14:07;;;;;;;6.40;2.00;;;21.60;93.60;;;;;;5050000;28;20360;-87
2020/12/20 05:16:37;;;;;;;7.85;2.38;;;21.50;93.00;;;;;;5050390;28;20878;-87
2020/12/20 05:19:06;;;;;;;5.72;1.55;;;21.50;93.60;;;;;;5049867;28;20433;-88
2020/12/20 05:21:34;;;;;;;5.53;2.33;;;21.40;94.30;;;;;;5049740;28;20433;-87
2020/12/20 05:24:26;;;;;;;8.55;2.40;;;21.40;94.40;;;;;;5049939;28;20516;-87
2020/12/20 05:26:54;;;;;;;6.88;2.20;;;21.40;95.00;;;;;;5049834;28;20375;-88
2020/12/20 05:29:27;;;;;;;10.57;2.25;;;21.40;94.40;;;;;;5049744;28;20383;-88
2020/12/20 05:31:55;;;;;;;9.15;2.28;;;21.40;94.60;;;;;;5049651;28;20367;-87
2020/12/20 05:34:23;;;;;;;7.03;2.25;;;21.40;94.80;;;;;;5049517;28;20384;-87
2020/12/20 05:36:54;;;;;;;8.68;2.40;;;21.30;94.60;;;;;;5048861;28;20451;-87
2020/12/20 05:39:21;;;;;;;8.68;2.58;;;21.20;94.30;;;;;;5049677;28;20378;-87
2020/12/20 05:41:49;;;;;;;8.52;2.30;;;21.20;94.30;;;;;;5049453;28;20376;-87
2020/12/20 05:44:25;;;;;;;11.87;2.80;;;21.20;94.70;;;;;;5049362;28;20540;-87
2020/12/20 05:46:53;;;;;;;6.63;2.00;;;21.30;95.30;;;;;;5049852;28;20387;-87
2020/12/20 05:49:22;;;;;;;8.07;2.30;;;21.20;94.50;;;;;;5049399;28;20384;-87
2020/12/20 05:52:02;;;;;;;8.93;2.40;;;21.10;94.80;;;;;;5049454;28;20522;-88
2020/12/20 05:54:38;;;;;;;11.45;2.45;;;21.20;95.00;;;;;;5049407;28;20372;-87
2020/12/20 05:57:23;;;;;;;8.10;2.13;;;21.20;94.70;;;;;;5049338;28;20372;-86
2020/12/20 05:59:52;;;;;;;6.53;2.20;;;21.30;95.30;;;;;;5049373;28;20384;-87
2020/12/20 06:02:20;;;;;;;7.40;2.22;;;21.30;94.70;;;;;;5049366;28;20364;-87
2020/12/20 06:04:49;;;;;;;8.18;2.25;;;21.30;95.00;;;;;;5049306;28;20403;-87
2020/12/20 06:07:16;;;;;;;6.97;2.15;;;21.40;94.70;;;;;;5048879;28;20774;-86
2020/12/20 06:09:53;;;;;;;9.80;2.25;;;21.40;94.80;;;;;;5048640;28;20392;-88
2020/12/20 06:12:22;;;;;;;8.93;2.40;;;21.50;94.60;;;;;;5048952;28;20487;-86
2020/12/20 06:14:50;;;;;;;8.85;2.20;;;21.70;94.10;;;;;;5049292;28;20380;-86
2020/12/20 06:17:20;;;;;;;7.28;2.17;;;21.90;93.50;;;;;;5049348;28;20394;-87
2020/12/20 06:19:56;;;;;;;9.57;2.28;;;21.90;93.40;;;;;;5048802;28;20371;-88
2020/12/20 06:22:26;;;;;;;10.85;2.35;;;21.70;93.50;;;;;;5049178;28;20375;-88
2020/12/20 06:25:02;;;;;;;7.30;2.08;;;21.50;93.80;;;;;;5049097;28;20404;-87
2020/12/20 06:27:31;;;;;;;5.20;1.80;;;21.50;94.40;;;;;;5048803;28;20379;-87
2020/12/20 06:30:07;;;;;;;8.00;2.00;;;21.40;94.00;;;;;;5049010;28;20434;-87
2020/12/20 06:32:34;;;;;;;6.18;1.90;;;21.40;93.70;;;;;;5048960;28;20704;-87
2020/12/20 06:35:18;;;;;;;8.60;2.10;;;21.40;93.60;;;;;;5048912;28;20457;-87
2020/12/20 06:37:48;;;;;;;6.80;1.90;;;21.40;94.00;;;;;;5048992;28;20422;-87
2020/12/20 06:40:21;;;;;;;6.43;1.83;;;21.40;93.60;;;;;;5048874;28;20858;-87
2020/12/20 06:42:52;;;;;;;8.02;1.98;;;21.50;93.40;;;;;;5048562;28;20782;-88
2020/12/20 06:45:21;;;;;;;4.53;1.38;;;21.50;93.50;;;;;;5048732;28;20406;-88
2020/12/20 06:47:51;;;;;;;6.88;1.73;;;21.40;93.30;;;;;;5049003;28;20470;-86
2020/12/20 06:50:41;;;;;;;5.85;1.70;;;21.40;93.70;;;;;;5049000;28;20380;-88
2020/12/20 06:53:09;;;;;;;7.40;1.60;;;21.40;93.80;;;;;;5048502;28;20401;-88
2020/12/20 06:55:37;;;;;;;6.78;1.60;;;21.40;93.10;;;;;;5048977;28;20364;-87
2020/12/20 06:58:04;;;;;;;5.43;1.45;;;21.30;93.10;;;;;;5049495;28;20394;-87
2020/12/20 07:00:54;;;;;;;5.20;1.33;;;21.20;93.60;;;;;;5049618;28;20850;-87
2020/12/20 07:03:24;;;;;;;7.15;1.73;;;21.10;93.50;;;;;;5048508;28;20399;-86
2020/12/20 07:05:53;;;;;;;3.63;1.35;;;21.10;93.90;;;;;;5048642;28;20415;-88
2020/12/20 07:08:32;;;;;;;6.23;1.57;;;21.10;94.60;;;;;;5048743;28;20399;-87
2020/12/20 07:11:01;;;;;;;4.47;1.85;;;21.00;93.90;;;;;;5048703;28;20432;-88
2020/12/20 07:13:39;;;;;;;5.00;1.42;;;20.90;94.30;;;;;;5048558;28;20433;-87
2020/12/20 07:16:18;;;;;;;7.60;1.70;;;20.90;94.40;;;;;;5048800;28;20589;-89
2020/12/20 07:18:51;;;;;;;4.67;1.47;;;20.90;94.40;;;;;;5052321;28;20394;-88
2020/12/20 07:21:24;;;;;;;6.40;1.40;;;20.80;94.60;;;;;;5049587;28;20439;-86
2020/12/20 07:23:55;;;;;;;5.30;1.30;;;20.80;94.80;;;;;;5051325;28;20464;-85
2020/12/20 07:26:23;;;;;;;7.53;1.70;;;20.80;94.60;;;;;;5071988;28;20374;-88
2020/12/20 07:28:50;;;;;;;6.75;1.73;;;20.70;94.60;;;;;;5054761;28;20433;-86
2020/12/20 07:31:19;;;;;;;6.50;1.48;;;20.70;95.10;;;;;;5052161;28;20379;-87
2020/12/20 07:33:47;;;;;;;6.30;1.73;;;20.60;95.20;;;;;;5052193;28;20743;-86
2020/12/20 07:36:15;;;;;;;6.43;1.43;;;20.50;95.10;;;;;;5052070;28;20372;-86
2020/12/20 07:38:42;;;;;;;7.45;1.60;;;20.60;95.70;;;;;;5051807;28;20476;-87
2020/12/20 07:41:11;;;;;;;7.72;1.55;;;20.50;95.30;;;;;;5051374;28;20384;-87
2020/12/20 07:43:38;;;;;;;4.90;1.20;;;20.50;95.40;;;;;;5057607;28;20391;-88
2020/12/20 07:46:08;;;;;;;9.60;1.80;;;20.40;95.50;;;;;;5063759;28;20395;-88
2020/12/20 07:48:36;;;;;;;5.27;1.50;;;20.40;95.60;;;;;;5051791;28;20422;-86
2020/12/20 07:51:11;;;;;;;6.63;1.20;;;20.30;95.70;;;;;;5042866;28;20894;-89
2020/12/20 07:53:54;;;;;;;6.57;1.43;;;20.30;95.80;;;;;;5034786;28;20520;-85
2020/12/20 07:56:33;;;;;;;4.50;1.40;;;20.30;95.60;;;;;;5060832;28;20463;-88
2020/12/20 07:59:07;;;;;;;5.40;1.50;;;20.20;96.00;;;;;;5071945;28;20405;-88
2020/12/20 08:01:35;;;;;;;8.17;1.83;;;20.20;96.10;;;;;;5071585;28;20413;-87
2020/12/20 08:04:09;;;;;;;6.20;1.60;;;20.10;96.20;;;;;;5068695;28;20409;-86
2020/12/20 08:06:40;;;;;;;6.83;1.70;;;20.10;96.30;;;;;;5051439;28;20732;-85
2020/12/20 08:09:14;;;;;;;5.50;1.30;;;20.00;96.50;;;;;;5051421;28;20402;-86
2020/12/20 08:11:43;;;;;;;6.93;1.70;;;20.00;96.60;;;;;;5052360;28;20448;-85
2020/12/20 08:14:15;;;;;;;5.45;1.38;;;19.90;96.80;;;;;;5051457;28;20704;-83
2020/12/20 08:16:50;;;;;;;5.20;1.60;;;19.90;97.00;;;;;;5059250;28;20392;-85
2020/12/20 08:19:25;;;;;;;9.82;1.73;;;19.80;97.20;;;;;;5048697;28;20859;-86
2020/12/20 08:22:04;;;;;;;10.38;1.95;;;19.80;97.20;;;;;;5064260;28;20811;-86
2020/12/20 08:24:38;;;;;;;6.07;1.42;;;19.80;97.30;;;;;;5070844;28;20417;-85
2020/12/20 08:27:26;;;;;;;6.15;1.42;;;19.70;97.20;;;;;;5066275;28;20811;-84
2020/12/20 08:29:58;;;;;;;7.97;1.58;;;19.70;97.20;;;;;;5050574;28;20478;-85
2020/12/20 08:32:55;;;;;;;5.25;1.58;;;19.60;97.10;;;;;;5050099;28;20437;-84
2020/12/20 08:35:23;;;;;;;4.20;1.57;;;19.60;97.30;;;;;;5026514;28;20422;-83
2020/12/20 08:37:59;;;;;;;5.78;1.42;;;19.60;97.50;;;;;;5058641;28;20398;-84
2020/12/20 08:40:31;;;;;;;7.65;2.17;;;19.50;97.50;;;;;;5050617;28;20474;-84
2020/12/20 08:43:00;;;;;;;7.05;1.52;;;19.50;97.60;;;;;;5050550;28;20388;-84
2020/12/20 08:45:29;;;;;;;6.53;1.27;;;19.50;97.80;;;;;;5050701;28;20905;-83
2020/12/20 08:48:02;;;;;;;3.35;1.33;;;19.40;97.90;;;;;;5050793;28;20387;-83
2020/12/20 08:50:31;;;;;;;4.45;1.40;;;19.40;98.00;;;;;;5052056;28;20485;-84
2020/12/20 08:53:09;;;;;;;6.10;1.60;;;19.40;98.10;;;;;;5055628;28;21906;-84
2020/12/20 08:55:37;;;;;;;4.25;1.48;;;19.40;98.40;;;;;;5048322;28;20411;-83
2020/12/20 08:58:08;;;;;;;8.05;1.85;;;19.40;98.30;;;;;;5050801;28;20387;-83
2020/12/20 09:00:37;;;;;;;6.97;1.77;;;19.30;98.40;;;;;;5050073;28;20406;-84
2020/12/20 09:03:06;;;;;;;5.20;1.40;;;19.30;98.50;;;;;;5054892;28;20878;-83
2020/12/20 09:05:37;;;;;;;6.55;1.90;;;19.20;98.60;;;;;;5061324;28;20482;-83
2020/12/20 09:08:05;;;;;;;9.63;1.60;;;19.20;98.80;;;;;;5047414;28;20400;-83
2020/12/20 09:10:35;;;;;;;10.05;2.17;;;19.20;98.80;;;;;;5052961;28;20415;-84
2020/12/20 09:13:05;;;;;;;6.63;1.90;;;19.10;99.00;;;;;;5049166;28;20394;-84
2020/12/20 09:15:36;;;;;;;7.07;1.77;;;19.20;99.20;;;;;;5055918;28;20387;-84
2020/12/20 09:18:25;;;;;;;6.60;1.70;;;19.10;99.10;;;;;;5042303;28;20423;-83
2020/12/20 09:20:53;;;;;;;5.35;1.63;;;19.10;99.20;;;;;;5055562;28;20390;-83
2020/12/20 09:23:21;;;;;;;8.17;1.83;;;19.10;99.20;;;;;;5060698;28;20781;-83
2020/12/20 09:25:50;;;;;;;11.13;2.28;;;19.00;99.30;;;;;;5049877;28;20478;-84
2020/12/20 09:28:24;;;;;;;5.70;2.20;;;19.00;99.40;;;;;;5050701;28;20398;-84
2020/12/20 09:30:53;;;;;;;7.30;1.93;;;19.00;99.40;;;;;;5054718;28;20419;-84
2020/12/20 09:33:23;;;;;;;8.60;1.63;;;18.90;99.70;;;;;;5050235;28;20817;-83
2020/12/20 09:35:55;;;;;;;5.77;2.10;;;18.90;99.50;;;;;;5031727;28;20419;-83
2020/12/20 09:38:24;;;;;;;6.97;1.98;;;18.90;99.60;;;;;;5046506;28;20406;-83
2020/12/20 09:41:03;;;;;;;6.68;1.60;;;18.90;99.50;;;;;;5038140;28;20401;-83
2020/12/20 09:43:31;;;;;;;5.88;1.77;;;18.90;99.60;;;;;;5048186;28;20430;-83
2020/12/20 09:46:00;;;;;;;8.38;1.80;;;18.90;99.70;;;;;;5045754;28;20936;-83
2020/12/20 09:48:28;;;;;;;5.75;1.85;;;18.80;99.70;;;;;;5067400;28;20411;-84
2020/12/20 09:50:56;;;;;;;6.93;1.67;;;18.80;99.80;;;;;;5053587;28;20894;-83
2020/12/20 09:53:23;;;;;;;8.68;1.85;;;18.80;99.80;;;;;;5053038;28;20390;-83
2020/12/20 09:55:50;;;;;;;5.63;1.83;;;18.70;99.90;;;;;;5054572;28;20390;-83
2020/12/20 09:58:18;;;;;;;5.90;2.00;;;18.70;99.90;;;;;;5048318;28;20556;-83
2020/12/20 10:00:45;;;;;;;4.63;1.48;;;18.70;99.90;;;;;;5048905;28;20442;-83
2020/12/20 10:03:13;;;;;;;7.75;1.83;;;18.70;99.90;;;;;;5061225;28;20392;-83
2020/12/20 10:05:42;;;;;;;8.85;2.03;;;18.70;99.90;;;;;;5049156;28;20409;-83
2020/12/20 10:08:11;;;;;;;5.60;1.80;;;18.60;99.90;;;;;;5048529;28;20384;-83
2020/12/20 10:10:38;;;;;;;11.05;2.05;;;18.60;99.90;;;;;;5048503;28;20478;-83
2020/12/20 10:13:05;;;;;;;7.45;2.22;;;18.60;99.90;;;;;;5049918;28;20392;-83
2020/12/20 10:15:33;;;;;;;12.23;2.13;;;18.60;99.90;;;;;;5051703;28;20464;-83
2020/12/20 10:18:01;;;;;;;7.80;2.10;;;18.60;99.90;;;;;;5049500;28;20878;-83
2020/12/20 10:20:31;;;;;;;9.60;2.53;;;18.60;99.90;;;;;;5049991;28;20425;-85
2020/12/20 10:22:59;;;;;;;8.77;2.20;;;18.60;99.90;;;;;;5050113;28;20380;-84
2020/12/20 10:25:27;;;;;;;8.98;2.17;;;18.50;99.90;;;;;;5048819;28;20407;-84
2020/12/20 10:27:55;;;;;;;12.00;1.88;;;18.50;99.90;;;;;;5049593;28;20724;-84
2020/12/20 10:30:23;;;;;;;9.88;2.00;;;18.50;99.90;;;;;;5049783;28;20392;-84
2020/12/20 10:32:51;;;;;;;10.05;2.70;;;18.40;99.90;;;;;;5048930;28;20380;-84
2020/12/20 10:35:19;;;;;;;10.25;3.30;;;18.40;99.90;;;;;;5048705;28;20383;-84
2020/12/20 10:37:46;;;;;;;10.50;2.93;;;18.30;99.90;;;;;;5051006;28;20449;-84
2020/12/20 10:40:14;;;;;;;10.50;2.38;;;18.30;99.90;;;;;;5048953;28;20396;-83
2020/12/20 10:42:41;;;;;;;11.45;2.53;;;18.30;99.90;;;;;;5035620;28;20403;-82
2020/12/20 10:45:08;;;;;;;12.10;2.43;;;18.30;99.90;;;;;;5048722;28;20418;-82
2020/12/20 10:47:36;;;;;;;9.35;2.38;;;18.30;99.90;;;;;;5050288;28;20400;-82
2020/12/20 10:50:04;;;;;;;9.32;2.13;;;18.30;99.90;;;;;;5048793;28;20390;-82
2020/12/20 10:52:31;;;;;;;6.38;2.10;;;18.30;99.90;;;;;;5048669;28;20407;-83
2020/12/20 10:55:00;;;;;;;10.80;2.40;;;18.20;99.90;;;;;;5048649;28;20879;-82
2020/12/20 10:57:50;;;;;;;11.55;2.47;;;18.20;99.90;;;;;;5063271;28;20721;-81
2020/12/20 11:00:17;;;;;;;8.93;2.40;;;18.20;99.90;;;;;;5074930;28;20477;-83
2020/12/20 11:02:45;;;;;;;10.05;2.08;;;18.20;99.90;;;;;;5073339;28;20764;-82
2020/12/20 11:05:18;;;;;;;10.18;2.45;;;18.20;99.90;;;;;;5046516;28;20418;-82
2020/12/20 11:07:45;;;;;;;7.85;2.20;;;18.20;99.90;;;;;;5049932;28;20372;-83
2020/12/20 11:10:12;;;;;;;10.57;2.55;;;18.20;99.90;;;;;;5048885;28;20786;-83
2020/12/20 11:12:39;;;;;;;10.23;2.50;;;18.10;99.90;;;;;;5048705;28;20395;-82
2020/12/20 11:15:07;;;;;;;7.30;2.20;;;18.10;99.90;;;;;;5049096;28;20399;-82
2020/12/20 11:17:34;;;;;;;9.50;2.00;;;18.10;99.90;;;;;;5049083;28;20376;-82
2020/12/20 11:20:01;;;;;;;6.50;2.00;;;18.10;99.90;;;;;;5048811;28;20782;-83
2020/12/20 11:22:28;;;;;;;6.57;1.88;;;18.10;99.90;;;;;;5058852;28;20382;-82
2020/12/20 11:24:55;;;;;;;9.50;1.97;;;18.10;99.90;;;;;;5050544;28;20549;-82
2020/12/20 11:27:25;;;;;;;8.40;2.08;;;18.10;99.90;;;;;;5055920;28;20386;-83
2020/12/20 11:29:52;;;;;;;8.27;1.98;;;18.10;99.90;;;;;;5057827;28;20403;-82
2020/12/20 11:32:19;;;;;;;8.38;2.10;;;18.10;99.90;;;;;;5050468;28;20375;-82
2020/12/20 11:34:46;;;;;;;9.32;2.05;;;18.10;99.90;;;;;;5059650;28;20398;-83
2020/12/20 11:37:15;;;;;;;11.48;2.10;;;18.10;99.90;;;;;;5070204;28;20381;-82
2020/12/20 11:39:43;;;;;;;13.20;2.30;;;18.10;99.90;;;;;;5071620;28;20469;-83
2020/12/20 11:42:11;;;;;;;7.35;1.95;;;18.10;99.90;;;;;;5063624;28;20383;-83
2020/12/20 11:44:39;;;;;;;11.18;2.00;;;18.10;99.90;;;;;;5061732;28;20417;-83
2020/12/20 11:47:06;;;;;;;8.07;2.60;;;18.00;99.90;;;;;;5052518;28;20410;-83
2020/12/20 11:49:33;;;;;;;9.43;2.05;;;18.00;99.90;;;;;;5068969;28;20374;-83
2020/12/20 11:52:00;;;;;;;9.88;2.28;;;18.00;99.90;;;;;;5056492;28;20415;-83
2020/12/20 11:54:28;;;;;;;8.65;2.15;;;18.00;99.90;;;;;;5051463;28;20897;-83
2020/12/20 11:56:56;;;;;;;13.32;2.70;;;18.10;99.90;;;;;;5051643;28;20380;-83
2020/12/20 11:59:24;;;;;;;7.88;2.30;;;18.10;99.90;;;;;;5051520;28;20407;-83
2020/12/20 12:01:51;;;;;;;10.90;2.30;;;18.10;99.90;;;;;;5052174;28;20408;-83
2020/12/20 12:04:18;;;;;;;9.50;2.10;;;18.10;99.90;;;;;;5054393;28;20424;-83
2020/12/20 12:06:46;;;;;;;7.97;1.98;;;18.20;99.90;;;;;;5052772;28;20966;-83
2020/12/20 12:09:14;;;;;;;11.63;2.13;;;18.10;99.90;;;;;;5051308;28;20388;-83
2020/12/20 12:11:41;;;;;;;8.68;2.05;;;18.20;99.90;;;;;;5051352;28;20403;-83
2020/12/20 12:14:09;;;;;;;11.13;2.90;;;18.20;99.90;;;;;;5051205;28;20388;-83
2020/12/20 12:16:36;;;;;;;10.27;2.38;;;18.20;99.90;;;;;;5051373;28;20392;-83
2020/12/20 12:19:03;;;;;;;10.60;2.40;;;18.20;99.90;;;;;;5032989;28;20384;-83
2020/12/20 12:21:30;;;;;;;11.40;2.47;;;18.20;99.90;;;;;;5055664;28;20714;-83
2020/12/20 12:23:57;;;;;;;12.88;2.42;;;18.20;99.90;;;;;;5040852;28;20400;-83
2020/12/20 12:26:25;;;;;;;12.15;2.40;;;18.20;99.90;;;;;;5049143;28;20480;-83
2020/12/20 12:28:52;;;;;;;10.38;2.53;;;18.20;99.90;;;;;;5049703;28;20419;-83
2020/12/20 12:31:19;;;;;;;9.18;2.40;;;18.20;99.90;;;;;;5042089;28;20461;-83
2020/12/20 12:33:46;;;;;;;8.98;2.17;;;18.20;99.90;;;;;;5046418;28;20410;-83
2020/12/20 12:36:14;;;;;;;9.05;2.20;;;18.20;99.90;;;;;;5043469;28;20432;-83
2020/12/20 12:38:41;;;;;;;11.88;2.50;;;18.10;99.90;;;;;;5053638;28;21010;-83
2020/12/20 12:41:08;;;;;;;9.43;2.17;;;18.10;99.90;;;;;;5034639;28;20398;-83
2020/12/20 12:43:35;;;;;;;9.00;2.40;;;18.10;99.90;;;;;;5043498;28;20416;-83
2020/12/20 12:46:03;;;;;;;13.75;2.38;;;18.10;99.90;;;;;;5042176;28;20408;-83
2020/12/20 12:48:30;;;;;;;11.07;2.20;;;18.10;99.90;;;;;;5050608;28;20470;-83
2020/12/20 12:50:57;;;;;;;13.02;2.35;;;18.10;99.90;;;;;;5037818;28;20441;-83
2020/12/20 12:53:25;;;;;;;8.85;2.25;;;18.10;99.90;;;;;;5050159;28;20880;-83
2020/12/20 12:55:52;;;;;;;8.05;2.20;;;18.10;99.90;;;;;;5031440;28;20405;-83
2020/12/20 12:58:19;;;;;;;10.48;2.15;;;18.10;99.90;;;;;;5052634;28;20390;-83